Portada
METAR-TAF:

METAR-TAF

Aeropuertos :

Melilla, España

Aeropuerto de Melilla

latitud: 35-17N, longitud: 002-57W, altitud: 47 m

Observación

El informe se hizo hace 23 minutos, a las 18:00 UTC
Viento 7 kt del este, variando entre noreste y sureste
Temperatura 24°C
Humedad 83%
Presión 1018 hPa
Visibilidad 10 km o más
Nubes dispersas a una altura de 900 ft
Cielo nuboso a una altura de 1400 ft

METAR: GEML 231800Z 08007KT 040V130 9999 SCT009 BKN014 24/21 Q1018

Hora: 20:23 (18:23 UTC)

Pronóstico

El informe se hizo hace 4 horas y 20 minutos, a las 14:03 UTC
Pronóstico válido del 23 a las 15 UTC al 24 a las 15 UTC
Viento 8 kt del este-noreste
Visibilidad 10 km o más
Nubes dispersas a una altura de 1200 ft
Temporalmente
del 23 a las 15 UTC al 24 a las 12 UTC
Nubes dispersas a una altura de 800 ft
Cielo nuboso a una altura de 1000 ft

TAF: GEML 231403Z 2315/2415 06008KT 9999 SCT012 TX26/2412Z TN21/2406Z TEMPO 2315/2412 SCT008 BKN010

Observaciones y pronósticos meteorológicos de más de 4000 aeropuertos (mensajes METAR y TAF).

Los puntos amarillos y rojos representan las estaciones disponibles.

Ponga el ratón en el punto deseado para ver el nombre de la estación.

Haga clic para ver las observaciones y los pronósticos meteorológicos.

Para cambiar el mapa : haga clic en los botones verdes con una cruz de color negro para hacer un zoom, en el botón verde con un guión para alejar o en las flechas verdes para mapas adyacentes.


METAR-TAF: